createdAt,value
2023-03-01T00:01:29.972Z,2.68
2023-03-01T00:03:57.857Z,2.69
2023-03-01T00:06:25.278Z,2.69
2023-03-01T00:08:52.480Z,2.67
2023-03-01T00:11:29.551Z,2.63
2023-03-01T00:13:59.777Z,2.59
2023-03-01T00:16:36.689Z,2.58
2023-03-01T00:19:03.993Z,2.57
2023-03-01T00:21:31.053Z,2.58
2023-03-01T00:23:58.815Z,2.62
2023-03-01T00:26:26.919Z,2.65
2023-03-01T00:28:56.276Z,2.66
2023-03-01T00:31:25.947Z,2.64
2023-03-01T00:33:58.274Z,2.63
2023-03-01T00:36:29.642Z,2.62
2023-03-01T00:38:57.329Z,2.55
2023-03-01T00:41:25.072Z,2.60
2023-03-01T00:43:52.017Z,2.58
2023-03-01T00:46:22.896Z,2.57
2023-03-01T00:48:50.205Z,2.57
2023-03-01T00:51:21.565Z,2.58
2023-03-01T00:53:51.797Z,2.57
2023-03-01T00:56:19.543Z,2.52
2023-03-01T00:58:46.425Z,2.55
2023-03-01T01:01:23.965Z,2.53
2023-03-01T01:03:57.099Z,2.54
2023-03-01T01:06:34.484Z,2.52
2023-03-01T01:09:02.144Z,2.48
2023-03-01T01:11:30.546Z,2.49
2023-03-01T01:13:58.556Z,2.42
2023-03-01T01:16:27.721Z,2.46
2023-03-01T01:18:55.948Z,2.42
2023-03-01T01:21:25.044Z,2.44
2023-03-01T01:23:52.285Z,2.37
2023-03-01T01:26:26.880Z,2.41
2023-03-01T01:28:55.254Z,2.41
2023-03-01T01:31:24.682Z,2.40
2023-03-01T01:33:53.394Z,2.37
2023-03-01T01:36:20.450Z,2.38
2023-03-01T01:38:47.368Z,2.35
2023-03-01T01:41:15.392Z,2.28
2023-03-01T01:43:46.570Z,2.32
2023-03-01T01:46:32.539Z,2.34
2023-03-01T01:49:24.495Z,2.34
2023-03-01T01:51:59.004Z,2.33
2023-03-01T01:54:39.546Z,2.33
2023-03-01T01:57:13.761Z,2.32
2023-03-01T01:59:44.718Z,2.31
2023-03-01T02:02:13.026Z,2.29
2023-03-01T02:04:40.415Z,2.30
2023-03-01T02:07:19.550Z,2.29
2023-03-01T02:09:51.059Z,2.23
2023-03-01T02:12:23.177Z,2.28
2023-03-01T02:14:50.180Z,2.29
2023-03-01T02:17:18.813Z,2.28
2023-03-01T02:20:15.847Z,2.28
2023-03-01T02:22:46.100Z,2.29
2023-03-01T02:25:40.400Z,2.31
2023-03-01T02:28:27.556Z,2.31
2023-03-01T02:31:13.283Z,2.31
2023-03-01T02:33:40.942Z,2.30
2023-03-01T02:36:15.339Z,2.28
2023-03-01T02:38:43.569Z,2.28
2023-03-01T02:41:13.085Z,2.26
2023-03-01T02:43:40.117Z,2.26
2023-03-01T02:46:21.056Z,2.22
2023-03-01T02:48:55.150Z,2.21
2023-03-01T02:51:34.348Z,2.20
2023-03-01T02:54:26.184Z,2.18
2023-03-01T02:56:54.259Z,2.18
2023-03-01T02:59:28.719Z,2.17
2023-03-01T03:01:55.698Z,2.15
2023-03-01T03:04:22.645Z,2.15
2023-03-01T03:06:52.013Z,2.15
2023-03-01T03:09:19.962Z,2.07
2023-03-01T03:11:47.634Z,2.06
2023-03-01T03:14:17.694Z,2.10
2023-03-01T03:16:51.583Z,2.07
2023-03-01T03:19:20.144Z,2.07
2023-03-01T03:21:47.334Z,1.98
2023-03-01T03:24:14.232Z,2.05
2023-03-01T03:26:41.119Z,2.06
2023-03-01T03:29:08.022Z,2.00
2023-03-01T03:31:35.226Z,2.08
2023-03-01T03:34:02.133Z,2.08
2023-03-01T03:36:29.170Z,2.10
2023-03-01T03:38:56.173Z,2.11
2023-03-01T03:41:23.129Z,2.11
2023-03-01T03:43:50.159Z,2.09
2023-03-01T03:46:17.981Z,2.08
2023-03-01T03:48:46.108Z,2.07
2023-03-01T03:51:15.903Z,2.10
2023-03-01T03:53:43.636Z,2.10
2023-03-01T03:56:12.720Z,2.11
2023-03-01T03:58:39.614Z,2.11
2023-03-01T04:01:06.737Z,2.11
2023-03-01T04:03:35.938Z,2.11
2023-03-01T04:06:05.099Z,2.11
2023-03-01T04:08:32.447Z,2.08
2023-03-01T04:11:22.238Z,2.12
2023-03-01T04:13:49.390Z,2.11
2023-03-01T04:16:16.725Z,2.13
2023-03-01T04:18:43.672Z,2.15
2023-03-01T04:21:12.214Z,2.09
2023-03-01T04:23:40.043Z,2.19
2023-03-01T04:26:06.934Z,2.22
2023-03-01T04:28:36.857Z,2.20
2023-03-01T04:31:14.473Z,2.24
2023-03-01T04:33:44.778Z,2.26
2023-03-01T04:36:13.310Z,2.27
2023-03-01T04:38:40.878Z,2.25
2023-03-01T04:41:11.148Z,2.30
2023-03-01T04:43:38.212Z,2.35
2023-03-01T04:46:10.194Z,2.37
2023-03-01T04:48:39.562Z,2.38
2023-03-01T04:51:07.116Z,2.36
2023-03-01T04:53:34.163Z,2.45
2023-03-01T04:56:01.075Z,2.48
2023-03-01T04:58:29.389Z,2.48
2023-03-01T05:00:56.402Z,2.50
2023-03-01T05:03:23.806Z,2.53
2023-03-01T05:05:53.378Z,2.54
2023-03-01T05:08:21.676Z,2.57
2023-03-01T05:10:53.993Z,2.58
2023-03-01T05:13:22.049Z,2.59
2023-03-01T05:15:56.633Z,2.62
2023-03-01T05:18:27.951Z,2.65
2023-03-01T05:20:57.242Z,2.67
2023-03-01T05:23:24.413Z,2.68
2023-03-01T05:25:53.226Z,2.70
2023-03-01T05:28:21.211Z,2.71
2023-03-01T05:30:48.481Z,2.65
2023-03-01T05:33:15.438Z,2.73
2023-03-01T05:35:44.179Z,2.66
2023-03-01T05:38:15.462Z,2.73
2023-03-01T05:40:48.751Z,2.73
2023-03-01T05:43:17.807Z,2.72
2023-03-01T05:45:45.117Z,2.74
2023-03-01T05:48:13.429Z,2.75
2023-03-01T05:50:45.707Z,2.74
2023-03-01T05:53:17.313Z,2.74
2023-03-01T05:55:45.274Z,2.64
2023-03-01T05:58:16.130Z,2.77
2023-03-01T06:00:45.398Z,2.77
2023-03-01T06:03:14.722Z,2.78
2023-03-01T06:05:42.792Z,2.73
2023-03-01T06:08:12.162Z,2.81
2023-03-01T06:10:39.109Z,2.80
2023-03-01T06:13:06.234Z,2.85
2023-03-01T06:15:33.259Z,2.84
2023-03-01T06:18:00.509Z,2.87
2023-03-01T06:20:29.734Z,2.90
2023-03-01T06:22:57.119Z,2.93
2023-03-01T06:25:26.787Z,2.94
2023-03-01T06:27:53.820Z,2.91
2023-03-01T06:30:24.492Z,2.97
2023-03-01T06:32:51.958Z,3.02
2023-03-01T06:35:20.620Z,3.06
2023-03-01T06:37:48.806Z,3.10
2023-03-01T06:40:17.050Z,3.12
2023-03-01T06:42:50.056Z,3.15
2023-03-01T06:45:19.967Z,3.17
2023-03-01T06:47:47.306Z,3.14
2023-03-01T06:50:15.323Z,3.23
2023-03-01T06:52:42.289Z,3.29
2023-03-01T06:55:09.475Z,3.32
2023-03-01T06:57:36.374Z,3.35
2023-03-01T07:00:05.523Z,3.39
2023-03-01T07:02:32.471Z,3.41
2023-03-01T07:04:59.383Z,3.45
2023-03-01T07:07:26.273Z,3.49
2023-03-01T07:09:54.172Z,3.55
2023-03-01T07:12:21.063Z,3.58
2023-03-01T07:14:47.960Z,3.62
2023-03-01T07:17:14.876Z,3.66
2023-03-01T07:19:41.731Z,3.70
2023-03-01T07:22:11.358Z,3.73
2023-03-01T07:24:38.224Z,3.78
2023-03-01T07:27:05.109Z,3.82
2023-03-01T07:29:32.014Z,3.89
2023-03-01T07:31:59.483Z,3.95
2023-03-01T07:34:26.818Z,4.00
2023-03-01T07:36:53.735Z,4.09
2023-03-01T07:39:20.657Z,4.16
2023-03-01T07:41:47.590Z,4.21
2023-03-01T07:44:14.529Z,4.26
2023-03-01T07:46:41.478Z,4.33
2023-03-01T07:49:08.415Z,4.39
2023-03-01T07:51:35.324Z,4.43
2023-03-01T07:54:02.174Z,4.49
2023-03-01T07:56:29.319Z,4.55
2023-03-01T07:58:56.412Z,4.62
2023-03-01T08:01:23.680Z,4.65
2023-03-01T08:03:50.591Z,4.66
2023-03-01T08:06:18.626Z,4.76
2023-03-01T08:08:46.131Z,4.83
2023-03-01T08:11:15.363Z,4.89
2023-03-01T08:13:42.975Z,4.95
2023-03-01T08:16:15.364Z,4.95
2023-03-01T08:18:43.715Z,5.08
2023-03-01T08:21:14.007Z,5.13
2023-03-01T08:23:41.691Z,5.23
2023-03-01T08:26:21.477Z,5.30
2023-03-01T08:28:49.794Z,5.38
2023-03-01T08:31:30.742Z,5.45
2023-03-01T08:34:01.407Z,5.51
2023-03-01T08:36:41.017Z,5.58
2023-03-01T08:39:09.366Z,5.65
2023-03-01T08:41:36.714Z,5.72
2023-03-01T08:44:04.470Z,5.72
2023-03-01T08:46:38.172Z,5.83
2023-03-01T08:49:09.885Z,5.90
2023-03-01T08:51:39.885Z,5.97
2023-03-01T08:54:12.304Z,6.04
2023-03-01T08:56:39.522Z,6.08
2023-03-01T08:59:06.448Z,6.20
2023-03-01T09:01:33.355Z,6.27
2023-03-01T09:04:00.709Z,6.35
2023-03-01T09:06:27.693Z,6.40
2023-03-01T09:08:55.722Z,6.43
2023-03-01T09:11:23.260Z,6.55
2023-03-01T09:13:51.292Z,6.62
2023-03-01T09:16:20.683Z,6.71
2023-03-01T09:18:52.639Z,6.79
2023-03-01T09:21:37.262Z,6.89
2023-03-01T09:24:07.338Z,6.99
2023-03-01T09:26:34.384Z,7.09
2023-03-01T09:29:01.250Z,7.17
2023-03-01T09:31:28.209Z,7.25
2023-03-01T09:33:55.833Z,7.34
2023-03-01T09:36:26.266Z,7.43
2023-03-01T09:38:56.276Z,7.51
2023-03-01T09:41:50.291Z,7.60
2023-03-01T09:44:31.681Z,7.69
2023-03-01T09:47:00.209Z,7.77
2023-03-01T09:49:31.566Z,7.86
2023-03-01T09:52:16.805Z,7.96
2023-03-01T09:54:43.709Z,8.07
2023-03-01T09:57:19.655Z,8.11
2023-03-01T10:00:11.597Z,8.23
2023-03-01T10:02:57.936Z,8.32
2023-03-01T10:06:08.653Z,8.39
2023-03-01T10:09:02.091Z,8.49
2023-03-01T10:11:38.483Z,8.57
2023-03-01T10:14:47.906Z,8.67
2023-03-01T10:17:38.779Z,8.78
2023-03-01T10:20:43.000Z,8.83
2023-03-01T10:23:10.921Z,8.96
2023-03-01T10:26:21.704Z,9.06
2023-03-01T10:29:11.589Z,9.14
2023-03-01T10:31:48.972Z,9.24
2023-03-01T10:34:32.120Z,9.34
2023-03-01T10:37:16.722Z,9.41
2023-03-01T10:39:57.044Z,9.48
2023-03-01T10:42:31.447Z,9.49
2023-03-01T10:44:59.922Z,9.60
2023-03-01T10:47:28.807Z,9.68
2023-03-01T10:50:06.152Z,9.74
2023-03-01T10:52:38.963Z,9.81
2023-03-01T10:55:17.689Z,9.84
2023-03-01T10:57:44.618Z,9.92
2023-03-01T11:00:23.989Z,9.97
2023-03-01T11:02:59.985Z,10.03
2023-03-01T11:05:30.962Z,10.11
2023-03-01T11:08:00.245Z,10.17
2023-03-01T11:10:30.867Z,10.26
2023-03-01T11:13:30.031Z,10.33
2023-03-01T11:16:03.163Z,10.35
2023-03-01T11:18:46.162Z,10.45
2023-03-01T11:21:16.727Z,10.53
2023-03-01T11:23:46.630Z,10.58
2023-03-01T11:26:14.731Z,10.65
2023-03-01T11:28:43.754Z,10.71
2023-03-01T11:31:13.616Z,10.78
2023-03-01T11:33:55.236Z,10.83
2023-03-01T11:37:04.072Z,10.89
2023-03-01T11:39:50.179Z,10.95
2023-03-01T11:42:25.307Z,11.01
2023-03-01T11:44:56.678Z,11.06
2023-03-01T11:47:59.328Z,11.09
2023-03-01T11:50:43.205Z,11.15
2023-03-01T11:53:31.057Z,11.22
2023-03-01T11:56:18.280Z,11.27
2023-03-01T11:59:12.666Z,11.31
2023-03-01T12:02:14.076Z,11.36
2023-03-01T12:05:16.556Z,11.37
2023-03-01T12:07:59.572Z,11.44
2023-03-01T12:10:30.365Z,11.50
2023-03-01T12:13:39.669Z,11.55
2023-03-01T12:17:03.390Z,11.57
2023-03-01T12:20:20.861Z,11.61
2023-03-01T12:23:30.848Z,11.68
2023-03-01T12:26:30.014Z,11.73
2023-03-01T12:29:15.613Z,11.80
2023-03-01T12:32:36.405Z,11.80
2023-03-01T12:35:18.226Z,11.83
2023-03-01T12:38:14.270Z,11.83
2023-03-01T12:41:22.055Z,11.86
2023-03-01T12:44:11.112Z,11.91
2023-03-01T12:46:57.869Z,11.96
2023-03-01T12:49:45.885Z,11.96
2023-03-01T12:52:23.216Z,12.04
2023-03-01T12:54:52.478Z,12.06
2023-03-01T12:57:37.787Z,12.15
2023-03-01T13:00:11.742Z,12.20
2023-03-01T13:02:50.567Z,12.20
2023-03-01T13:05:41.509Z,12.23
2023-03-01T13:08:42.730Z,12.19
2023-03-01T13:11:20.551Z,12.22
2023-03-01T13:13:49.506Z,12.27
2023-03-01T13:16:41.460Z,12.31
2023-03-01T13:19:33.444Z,12.33
2023-03-01T13:22:00.670Z,12.37
2023-03-01T13:24:43.521Z,12.36
2023-03-01T13:27:30.230Z,12.37
2023-03-01T13:30:04.313Z,12.38
2023-03-01T13:32:44.818Z,12.37
2023-03-01T13:35:20.937Z,12.40
2023-03-01T13:37:48.238Z,12.47
2023-03-01T13:40:19.417Z,12.52
2023-03-01T13:42:56.403Z,12.53
2023-03-01T13:45:40.768Z,12.59
2023-03-01T13:48:23.784Z,12.70
2023-03-01T13:51:01.691Z,12.76
2023-03-01T13:53:38.219Z,12.83
2023-03-01T13:56:34.713Z,12.88
2023-03-01T13:59:07.096Z,12.94
2023-03-01T14:01:37.139Z,13.01
2023-03-01T14:04:24.272Z,13.01
2023-03-01T14:06:51.169Z,13.01
2023-03-01T14:09:26.699Z,12.94
2023-03-01T14:12:45.694Z,12.77
2023-03-01T14:15:49.091Z,12.63
2023-03-01T14:18:31.116Z,12.62
2023-03-01T14:20:58.755Z,12.60
2023-03-01T14:23:27.228Z,12.58
2023-03-01T14:25:56.775Z,12.63
2023-03-01T14:28:31.026Z,12.67
2023-03-01T14:31:00.831Z,12.70
2023-03-01T14:33:42.150Z,12.75
2023-03-01T14:36:14.226Z,12.80
2023-03-01T14:38:46.884Z,12.80
2023-03-01T14:41:24.528Z,12.75
2023-03-01T14:43:58.926Z,12.70
2023-03-01T14:46:35.506Z,12.69
2023-03-01T14:49:07.472Z,12.70
2023-03-01T14:51:42.953Z,12.69
2023-03-01T14:54:44.508Z,12.69
2023-03-01T14:57:22.757Z,12.68
2023-03-01T14:59:53.901Z,12.77
2023-03-01T15:02:25.083Z,12.79
2023-03-01T15:04:57.682Z,12.81
2023-03-01T15:07:32.253Z,12.81
2023-03-01T15:10:00.636Z,12.87
2023-03-01T15:12:30.150Z,12.85
2023-03-01T15:15:04.393Z,12.83
2023-03-01T15:17:35.510Z,12.82
2023-03-01T15:20:07.902Z,12.83
2023-03-01T15:22:36.167Z,12.86
2023-03-01T15:25:03.106Z,12.81
2023-03-01T15:27:29.999Z,12.84
2023-03-01T15:30:00.986Z,12.86
2023-03-01T15:32:40.963Z,12.85
2023-03-01T15:35:44.048Z,12.80
2023-03-01T15:38:33.400Z,12.71
2023-03-01T15:41:21.072Z,12.60
2023-03-01T15:43:48.081Z,12.54
2023-03-01T15:46:36.169Z,12.49
2023-03-01T15:49:06.934Z,12.48
2023-03-01T15:51:38.301Z,12.48
2023-03-01T15:54:27.524Z,12.47
2023-03-01T15:56:54.533Z,12.42
2023-03-01T15:59:23.192Z,12.40
2023-03-01T16:01:50.393Z,12.43
2023-03-01T16:04:23.798Z,12.42
2023-03-01T16:06:55.105Z,12.40
2023-03-01T16:09:26.597Z,12.33
2023-03-01T16:11:54.538Z,12.33
2023-03-01T16:14:21.921Z,12.33
2023-03-01T16:16:49.757Z,12.25
2023-03-01T16:19:17.297Z,12.30
2023-03-01T16:21:47.550Z,12.29
2023-03-01T16:24:15.558Z,12.25
2023-03-01T16:26:43.205Z,12.23
2023-03-01T16:29:10.503Z,12.20
2023-03-01T16:31:37.662Z,12.12
2023-03-01T16:34:04.971Z,12.08
2023-03-01T16:36:31.934Z,12.05
2023-03-01T16:39:01.565Z,12.01
2023-03-01T16:41:29.232Z,11.93
2023-03-01T16:43:56.657Z,11.87
2023-03-01T16:46:31.408Z,11.79
2023-03-01T16:48:58.427Z,11.71
2023-03-01T16:51:26.083Z,11.64
2023-03-01T16:53:53.539Z,11.58
2023-03-01T16:56:20.599Z,11.50
2023-03-01T16:58:47.561Z,11.44
2023-03-01T17:01:20.718Z,11.37
2023-03-01T17:03:49.624Z,11.30
2023-03-01T17:06:21.387Z,11.22
2023-03-01T17:08:48.398Z,11.17
2023-03-01T17:11:18.838Z,11.07
2023-03-01T17:13:46.445Z,11.00
2023-03-01T17:16:17.723Z,10.85
2023-03-01T17:18:45.109Z,10.72
2023-03-01T17:21:12.984Z,10.57
2023-03-01T17:23:44.149Z,10.45
2023-03-01T17:26:11.366Z,10.40
2023-03-01T17:28:38.763Z,10.34
2023-03-01T17:31:07.194Z,10.28
2023-03-01T17:33:34.522Z,10.22
2023-03-01T17:36:01.968Z,10.14
2023-03-01T17:38:28.952Z,10.10
2023-03-01T17:40:59.202Z,10.02
2023-03-01T17:43:26.128Z,10.06
2023-03-01T17:45:54.607Z,9.94
2023-03-01T17:48:21.694Z,9.88
2023-03-01T17:50:48.625Z,9.73
2023-03-01T17:53:15.747Z,9.59
2023-03-01T17:55:44.263Z,9.44
2023-03-01T17:58:14.502Z,9.35
2023-03-01T18:00:41.661Z,9.28
2023-03-01T18:03:08.542Z,9.19
2023-03-01T18:05:37.878Z,9.17
2023-03-01T18:08:05.389Z,9.14
2023-03-01T18:10:34.372Z,9.11
2023-03-01T18:13:01.271Z,9.12
2023-03-01T18:15:28.926Z,9.13
2023-03-01T18:17:56.011Z,9.13
2023-03-01T18:20:22.967Z,9.07
2023-03-01T18:22:50.894Z,8.95
2023-03-01T18:25:17.818Z,8.83
2023-03-01T18:27:44.731Z,8.74
2023-03-01T18:30:13.021Z,8.61
2023-03-01T18:32:39.915Z,8.59
2023-03-01T18:35:08.237Z,8.61
2023-03-01T18:37:35.211Z,8.61
2023-03-01T18:40:02.160Z,8.61
2023-03-01T18:42:29.102Z,8.60
2023-03-01T18:44:55.983Z,8.58
2023-03-01T18:47:22.875Z,8.74
2023-03-01T18:49:49.764Z,8.60
2023-03-01T18:52:16.721Z,8.49
2023-03-01T18:54:44.667Z,8.41
2023-03-01T18:57:11.563Z,8.39
2023-03-01T18:59:38.462Z,8.39
2023-03-01T19:02:05.405Z,8.39
2023-03-01T19:04:32.446Z,8.38
2023-03-01T19:07:02.099Z,8.36
2023-03-01T19:09:29.132Z,8.36
2023-03-01T19:11:58.819Z,8.34
2023-03-01T19:14:25.813Z,8.30
2023-03-01T19:16:53.006Z,8.28
2023-03-01T19:19:19.916Z,8.26
2023-03-01T19:21:56.010Z,8.22
2023-03-01T19:24:31.518Z,8.19
2023-03-01T19:26:58.537Z,8.15
2023-03-01T19:29:26.217Z,8.09
2023-03-01T19:31:53.169Z,8.07
2023-03-01T19:34:22.766Z,8.05
2023-03-01T19:36:49.695Z,8.00
2023-03-01T19:39:16.719Z,7.94
2023-03-01T19:41:44.763Z,7.91
2023-03-01T19:44:12.426Z,7.86
2023-03-01T19:46:40.041Z,7.79
2023-03-01T19:49:07.748Z,7.63
2023-03-01T19:51:36.458Z,7.71
2023-03-01T19:54:05.469Z,7.65
2023-03-01T19:56:32.636Z,7.58
2023-03-01T19:59:00.665Z,7.55
2023-03-01T20:01:29.682Z,7.51
2023-03-01T20:03:56.736Z,7.47
2023-03-01T20:06:25.556Z,7.43
2023-03-01T20:08:53.340Z,7.33
2023-03-01T20:11:21.238Z,7.31
2023-03-01T20:13:48.144Z,7.29
2023-03-01T20:16:20.088Z,7.24
2023-03-01T20:18:47.069Z,7.20
2023-03-01T20:21:23.515Z,7.17
2023-03-01T20:23:51.584Z,7.11
2023-03-01T20:26:21.646Z,7.07
2023-03-01T20:28:51.457Z,7.02
2023-03-01T20:31:21.579Z,6.97
2023-03-01T20:33:48.813Z,6.92
2023-03-01T20:36:15.785Z,6.89
2023-03-01T20:38:42.758Z,6.84
2023-03-01T20:41:13.962Z,6.80
2023-03-01T20:43:43.610Z,6.75
2023-03-01T20:46:13.116Z,6.69
2023-03-01T20:48:43.430Z,6.65
2023-03-01T20:51:12.296Z,6.60
2023-03-01T20:53:39.626Z,6.56
2023-03-01T20:56:09.907Z,6.53
2023-03-01T20:58:36.736Z,6.49
2023-03-01T21:01:07.127Z,6.47
2023-03-01T21:03:34.780Z,6.47
2023-03-01T21:06:04.108Z,6.46
2023-03-01T21:08:31.323Z,6.46
2023-03-01T21:10:58.327Z,6.47
2023-03-01T21:13:27.607Z,6.47
2023-03-01T21:16:07.806Z,6.48
2023-03-01T21:18:36.818Z,6.46
2023-03-01T21:21:13.224Z,6.51
2023-03-01T21:23:41.720Z,6.55
2023-03-01T21:26:25.362Z,6.55
2023-03-01T21:28:57.868Z,6.53
2023-03-01T21:31:28.961Z,6.50
2023-03-01T21:33:59.816Z,6.47
2023-03-01T21:36:29.199Z,6.46
2023-03-01T21:38:56.725Z,6.39
2023-03-01T21:41:30.563Z,6.44
2023-03-01T21:44:03.228Z,6.44
2023-03-01T21:46:34.338Z,6.45
2023-03-01T21:49:02.574Z,6.41
2023-03-01T21:51:30.528Z,6.29
2023-03-01T21:53:59.459Z,6.20
2023-03-01T21:56:29.696Z,6.17
2023-03-01T21:58:58.624Z,6.15
2023-03-01T22:01:27.829Z,6.04
2023-03-01T22:03:56.538Z,5.90
2023-03-01T22:06:35.008Z,5.87
2023-03-01T22:09:06.750Z,5.82
2023-03-01T22:11:37.842Z,5.83
2023-03-01T22:14:04.924Z,5.84
2023-03-01T22:16:35.293Z,5.78
2023-03-01T22:19:03.789Z,5.66
2023-03-01T22:21:30.859Z,5.51
2023-03-01T22:23:57.990Z,5.38
2023-03-01T22:26:31.160Z,5.28
2023-03-01T22:29:01.732Z,5.20
2023-03-01T22:31:29.314Z,5.14
2023-03-01T22:33:58.168Z,5.07
2023-03-01T22:36:25.808Z,5.00
2023-03-01T22:38:59.294Z,4.95
2023-03-01T22:41:38.414Z,4.92
2023-03-01T22:44:05.464Z,4.90
2023-03-01T22:46:32.929Z,4.81
2023-03-01T22:49:00.138Z,4.85
2023-03-01T22:51:31.348Z,4.79
2023-03-01T22:53:58.437Z,4.75
2023-03-01T22:56:29.365Z,4.79
2023-03-01T22:59:03.982Z,4.88
2023-03-01T23:01:31.808Z,4.97
2023-03-01T23:03:58.759Z,5.02
2023-03-01T23:06:25.667Z,5.15
2023-03-01T23:08:55.175Z,5.21
2023-03-01T23:11:24.026Z,5.23
2023-03-01T23:13:51.714Z,5.27
2023-03-01T23:16:19.040Z,5.31
2023-03-01T23:18:46.276Z,5.37
2023-03-01T23:21:16.875Z,5.42
2023-03-01T23:23:46.378Z,5.48
2023-03-01T23:26:15.238Z,5.49
2023-03-01T23:28:42.633Z,5.45
2023-03-01T23:31:13.814Z,5.47
2023-03-01T23:33:44.372Z,5.46
2023-03-01T23:36:20.734Z,5.54
2023-03-01T23:38:50.206Z,5.56
2023-03-01T23:41:20.672Z,5.43
2023-03-01T23:43:50.754Z,5.30
2023-03-01T23:46:20.428Z,5.24
2023-03-01T23:48:48.053Z,5.26
2023-03-01T23:51:17.649Z,5.25
2023-03-01T23:53:54.436Z,5.15
2023-03-01T23:56:33.000Z,5.21
2023-03-01T23:59:03.425Z,5.22
